createdAt,value
2017-04-06T00:00:15.485Z,66.53
2017-04-06T00:00:41.563Z,66.81
2017-04-06T00:01:07.713Z,67.51
2017-04-06T00:01:33.794Z,67.51
2017-04-06T00:01:59.897Z,66.75
2017-04-06T00:02:25.976Z,67.32
2017-04-06T00:02:52.056Z,66.85
2017-04-06T00:03:18.136Z,66.66
2017-04-06T00:03:44.215Z,66.85
2017-04-06T00:04:10.298Z,66.75
2017-04-06T00:04:36.380Z,66.75
2017-04-06T00:05:02.459Z,66.75
2017-04-06T00:05:28.563Z,66.08
2017-04-06T00:05:54.669Z,66.56
2017-04-06T00:06:20.726Z,66.46
2017-04-06T00:06:46.829Z,66.75
2017-04-06T00:07:12.908Z,66.66
2017-04-06T00:07:38.990Z,66.56
2017-04-06T00:08:05.074Z,66.56
2017-04-06T00:08:31.150Z,66.37
2017-04-06T00:08:57.230Z,66.66
2017-04-06T00:09:23.311Z,66.66
2017-04-06T00:09:49.389Z,66.37
2017-04-06T00:10:15.469Z,66.66
2017-04-06T00:10:41.548Z,66.56
2017-04-06T00:11:07.626Z,66.66
2017-04-06T00:11:33.712Z,66.75
2017-04-06T00:11:59.794Z,66.85
2017-04-06T00:12:25.895Z,66.66
2017-04-06T00:12:51.972Z,66.66
2017-04-06T00:13:18.054Z,66.56
2017-04-06T00:13:44.158Z,66.75
2017-04-06T00:14:10.239Z,66.56
2017-04-06T00:14:36.318Z,66.46
2017-04-06T00:15:02.399Z,66.27
2017-04-06T00:15:28.475Z,66.66
2017-04-06T00:15:54.555Z,66.56
2017-04-06T00:16:20.635Z,66.37
2017-04-06T00:16:46.716Z,66.46
2017-04-06T00:17:12.796Z,66.66
2017-04-06T00:17:38.878Z,66.56
2017-04-06T00:18:04.957Z,66.37
2017-04-06T00:18:31.036Z,66.85
2017-04-06T00:18:57.116Z,66.66
2017-04-06T00:19:23.195Z,66.85
2017-04-06T00:19:49.276Z,66.85
2017-04-06T00:20:15.358Z,66.75
2017-04-06T00:20:41.441Z,66.85
2017-04-06T00:21:07.520Z,66.75
2017-04-06T00:21:33.599Z,66.75
2017-04-06T00:21:59.680Z,67.03
2017-04-06T00:22:25.830Z,66.85
2017-04-06T00:22:51.907Z,66.75
2017-04-06T00:23:17.989Z,66.75
2017-04-06T00:23:44.068Z,66.75
2017-04-06T00:24:10.149Z,66.56
2017-04-06T00:24:36.229Z,66.27
2017-04-06T00:25:02.311Z,66.56
2017-04-06T00:25:28.390Z,66.66
2017-04-06T00:25:54.469Z,66.56
2017-04-06T00:26:20.572Z,66.37
2017-04-06T00:26:46.672Z,66.75
2017-04-06T00:27:12.753Z,66.75
2017-04-06T00:27:38.832Z,66.46
2017-04-06T00:28:04.913Z,66.66
2017-04-06T00:28:30.994Z,66.66
2017-04-06T00:28:57.074Z,66.85
2017-04-06T00:29:23.176Z,66.66
2017-04-06T00:29:49.278Z,66.66
2017-04-06T00:30:15.357Z,66.75
2017-04-06T00:30:41.436Z,66.85
2017-04-06T00:31:07.519Z,66.46
2017-04-06T00:31:33.620Z,66.56
2017-04-06T00:31:59.698Z,66.66
2017-04-06T00:32:25.780Z,66.85
2017-04-06T00:32:51.858Z,66.18
2017-04-06T00:33:17.937Z,66.56
2017-04-06T00:33:44.018Z,66.85
2017-04-06T00:34:10.100Z,66.66
2017-04-06T00:34:36.181Z,66.66
2017-04-06T00:35:02.259Z,66.66
2017-04-06T00:35:28.338Z,66.66
2017-04-06T00:35:54.420Z,66.66
2017-04-06T00:36:20.496Z,66.56
2017-04-06T00:36:46.576Z,66.08
2017-04-06T00:37:12.657Z,66.27
2017-04-06T00:37:38.758Z,66.27
2017-04-06T00:38:04.840Z,66.37
2017-04-06T00:38:30.918Z,66.37
2017-04-06T00:38:57.000Z,66.66
2017-04-06T00:39:23.080Z,66.56
2017-04-06T00:39:49.159Z,66.46
2017-04-06T00:40:15.240Z,66.37
2017-04-06T00:40:41.323Z,66.37
2017-04-06T00:41:07.407Z,66.37
2017-04-06T00:41:33.509Z,66.66
2017-04-06T00:41:59.589Z,66.66
2017-04-06T00:42:25.670Z,66.75
2017-04-06T00:42:51.752Z,67.22
2017-04-06T00:43:17.833Z,67.22
2017-04-06T00:43:43.935Z,67.03
2017-04-06T00:44:10.018Z,67.03
2017-04-06T00:44:36.099Z,67.22
2017-04-06T00:45:02.179Z,67.13
2017-04-06T00:45:28.302Z,67.61
2017-04-06T00:45:54.404Z,67.32
2017-04-06T00:46:20.484Z,67.51
2017-04-06T00:46:46.563Z,67.51
2017-04-06T00:47:12.646Z,67.41
2017-04-06T00:47:38.728Z,67.41
2017-04-06T00:48:04.808Z,67.51
2017-04-06T00:48:30.889Z,67.51
2017-04-06T00:48:56.993Z,67.03
2017-04-06T00:49:23.074Z,67.22
2017-04-06T00:49:49.175Z,66.94
2017-04-06T00:50:15.256Z,67.22
2017-04-06T00:50:41.340Z,66.94
2017-04-06T00:51:07.467Z,67.03
2017-04-06T00:51:33.546Z,66.94
2017-04-06T00:51:59.648Z,66.75
2017-04-06T00:52:25.729Z,67.51
2017-04-06T00:52:51.807Z,67.22
2017-04-06T00:53:17.887Z,67.13
2017-04-06T00:53:43.989Z,67.13
2017-04-06T00:54:10.070Z,67.32
2017-04-06T00:54:36.149Z,66.94
2017-04-06T00:55:02.228Z,67.22
2017-04-06T00:55:28.331Z,67.13
2017-04-06T00:55:54.408Z,67.22
2017-04-06T00:56:20.486Z,67.32
2017-04-06T00:56:46.867Z,67.32
2017-04-06T00:57:12.947Z,67.13
2017-04-06T00:57:39.026Z,66.66
2017-04-06T00:58:05.105Z,67.03
2017-04-06T00:58:31.183Z,66.75
2017-04-06T00:58:57.262Z,67.51
2017-04-06T00:59:23.343Z,67.51
2017-04-06T00:59:49.424Z,66.56
2017-04-06T01:00:15.506Z,66.27
2017-04-06T01:00:41.609Z,66.56
2017-04-06T01:01:07.692Z,66.75
2017-04-06T01:01:33.771Z,66.66
2017-04-06T01:01:59.852Z,66.75
2017-04-06T01:02:25.935Z,66.85
2017-04-06T01:02:52.013Z,66.46
2017-04-06T01:03:18.140Z,66.66
2017-04-06T01:03:44.220Z,66.66
2017-04-06T01:04:10.324Z,66.66
2017-04-06T01:04:36.427Z,66.66
2017-04-06T01:05:02.509Z,66.66
2017-04-06T01:05:28.612Z,66.46
2017-04-06T01:05:54.691Z,66.37
2017-04-06T01:06:20.794Z,66.56
2017-04-06T01:06:46.877Z,66.66
2017-04-06T01:07:13.003Z,66.75
2017-04-06T01:07:39.107Z,66.37
2017-04-06T01:08:05.183Z,66.56
2017-04-06T01:08:31.265Z,66.56
2017-04-06T01:08:57.344Z,66.37
2017-04-06T01:09:23.424Z,66.66
2017-04-06T01:09:49.503Z,66.75
2017-04-06T01:10:15.584Z,66.85
2017-04-06T01:10:41.663Z,66.46
2017-04-06T01:11:07.764Z,67.41
2017-04-06T01:11:33.844Z,67.22
2017-04-06T01:11:59.925Z,67.32
2017-04-06T01:12:26.004Z,67.03
2017-04-06T01:12:52.083Z,67.32
2017-04-06T01:13:18.189Z,67.41
2017-04-06T01:13:44.268Z,68.27
2017-04-06T01:14:10.347Z,68.18
2017-04-06T01:14:36.428Z,68.18
2017-04-06T01:15:02.509Z,68.56
2017-04-06T01:15:28.587Z,68.75
2017-04-06T01:15:54.668Z,68.65
2017-04-06T01:16:20.749Z,68.65
2017-04-06T01:16:46.831Z,68.46
2017-04-06T01:17:12.933Z,68.75
2017-04-06T01:17:39.014Z,68.65
2017-04-06T01:18:05.091Z,68.84
2017-04-06T01:18:31.173Z,69.13
2017-04-06T01:18:57.277Z,68.65
2017-04-06T01:19:23.355Z,69.04
2017-04-06T01:19:49.436Z,69.42
2017-04-06T01:20:15.515Z,69.79
2017-04-06T01:20:41.594Z,70.27
2017-04-06T01:21:07.674Z,70.27
2017-04-06T01:21:33.757Z,70.47
2017-04-06T01:21:59.839Z,70.47
2017-04-06T01:22:25.916Z,70.27
2017-04-06T01:22:51.998Z,70.27
2017-04-06T01:23:18.079Z,70.56
2017-04-06T01:23:44.160Z,70.47
2017-04-06T01:24:10.237Z,70.56
2017-04-06T01:24:36.321Z,70.47
2017-04-06T01:25:02.426Z,70.27
2017-04-06T01:25:28.508Z,70.94
2017-04-06T01:25:54.613Z,70.75
2017-04-06T01:26:20.693Z,70.65
2017-04-06T01:26:47.122Z,71.42
2017-04-06T01:27:13.201Z,71.32
2017-04-06T01:27:39.282Z,71.32
2017-04-06T01:28:05.362Z,71.03
2017-04-06T01:28:31.441Z,71.42
2017-04-06T01:28:57.521Z,71.61
2017-04-06T01:29:23.604Z,71.03
2017-04-06T01:29:49.704Z,71.22
2017-04-06T01:30:15.786Z,71.22
2017-04-06T01:30:41.865Z,71.8
2017-04-06T01:31:07.968Z,71.7
2017-04-06T01:31:34.090Z,72.08
2017-04-06T01:32:00.168Z,71.98
2017-04-06T01:32:26.247Z,72.08
2017-04-06T01:32:52.325Z,71.61
2017-04-06T01:33:18.431Z,72.46
2017-04-06T01:33:44.511Z,72.75
2017-04-06T01:34:10.592Z,71.98
2017-04-06T01:34:36.697Z,71.51
2017-04-06T01:35:02.775Z,72.37
2017-04-06T01:35:28.875Z,71.98
2017-04-06T01:35:54.956Z,72.46
2017-04-06T01:36:21.060Z,71.89
2017-04-06T01:36:47.139Z,72.08
2017-04-06T01:37:13.220Z,72.27
2017-04-06T01:37:39.302Z,71.98
2017-04-06T01:38:05.401Z,72.46
2017-04-06T01:38:31.482Z,72.27
2017-04-06T01:38:57.564Z,72.37
2017-04-06T01:39:23.641Z,72.27
2017-04-06T01:39:49.721Z,72.37
2017-04-06T01:40:15.801Z,71.61
2017-04-06T01:40:41.886Z,71.61
2017-04-06T01:41:07.964Z,72.17
2017-04-06T01:41:34.043Z,72.08
2017-04-06T01:42:00.123Z,72.56
2017-04-06T01:42:26.201Z,72.27
2017-04-06T01:42:52.278Z,72.37
2017-04-06T01:43:18.385Z,72.37
2017-04-06T01:43:44.464Z,72.46
2017-04-06T01:44:10.542Z,72.37
2017-04-06T01:44:36.648Z,72.94
2017-04-06T01:45:02.728Z,72.46
2017-04-06T01:45:28.808Z,72.65
2017-04-06T01:45:54.912Z,72.08
2017-04-06T01:46:20.996Z,72.46
2017-04-06T01:46:47.070Z,72.37
2017-04-06T01:47:13.175Z,73.22
2017-04-06T01:47:39.283Z,73.03
2017-04-06T01:48:05.334Z,72.85
2017-04-06T01:48:31.416Z,72.85
2017-04-06T01:48:57.499Z,72.46
2017-04-06T01:49:23.578Z,72.94
2017-04-06T01:49:49.679Z,72.85
2017-04-06T01:50:15.759Z,72.46
2017-04-06T01:50:41.836Z,72.37
2017-04-06T01:51:07.937Z,72.46
2017-04-06T01:51:34.018Z,72.46
2017-04-06T01:52:00.098Z,72.85
2017-04-06T01:52:26.177Z,73.13
2017-04-06T01:52:52.257Z,73.22
2017-04-06T01:53:18.360Z,72.65
2017-04-06T01:53:44.442Z,73.03
2017-04-06T01:54:10.522Z,72.85
2017-04-06T01:54:36.600Z,72.94
2017-04-06T01:55:02.679Z,72.17
2017-04-06T01:55:28.758Z,72.46
2017-04-06T01:55:54.835Z,72.37
2017-04-06T01:56:20.918Z,72.46
2017-04-06T01:56:46.994Z,72.56
2017-04-06T01:57:13.100Z,72.27
2017-04-06T01:57:39.180Z,72.46
2017-04-06T01:58:05.261Z,72.56
2017-04-06T01:58:31.339Z,72.27
2017-04-06T01:58:57.420Z,72.46
2017-04-06T01:59:23.498Z,72.56
2017-04-06T01:59:49.578Z,72.08
2017-04-06T02:00:15.682Z,72.08
2017-04-06T02:00:41.760Z,72.56
2017-04-06T02:01:07.839Z,72.17
2017-04-06T02:01:33.920Z,72.17
2017-04-06T02:02:00.020Z,71.7
2017-04-06T02:02:26.099Z,72.46
2017-04-06T02:02:52.178Z,72.27
2017-04-06T02:03:18.282Z,72.27
2017-04-06T02:03:44.362Z,72.08
2017-04-06T02:04:10.439Z,71.8
2017-04-06T02:04:36.519Z,71.8
2017-04-06T02:05:02.646Z,71.7
2017-04-06T02:05:28.747Z,71.8
2017-04-06T02:05:54.826Z,71.32
2017-04-06T02:06:20.907Z,71.61
2017-04-06T02:06:46.984Z,72.08
2017-04-06T02:07:13.068Z,72.37
2017-04-06T02:07:39.196Z,72.27
2017-04-06T02:08:05.274Z,72.37
2017-04-06T02:08:31.355Z,71.8
2017-04-06T02:08:57.435Z,71.98
2017-04-06T02:09:23.542Z,71.98
2017-04-06T02:09:49.619Z,71.89
2017-04-06T02:10:15.746Z,71.8
2017-04-06T02:10:41.804Z,71.51
2017-04-06T02:11:07.882Z,71.89
2017-04-06T02:11:33.960Z,71.89
2017-04-06T02:12:00.040Z,71.98
2017-04-06T02:12:26.121Z,72.08
2017-04-06T02:12:52.201Z,72.17
2017-04-06T02:13:18.283Z,71.8
2017-04-06T02:13:44.386Z,71.8
2017-04-06T02:14:10.465Z,72.27
2017-04-06T02:14:36.568Z,72.08
2017-04-06T02:15:02.670Z,71.89
2017-04-06T02:15:28.772Z,71.7
2017-04-06T02:15:54.857Z,71.32
2017-04-06T02:16:20.931Z,71.13
2017-04-06T02:16:47.009Z,71.13
2017-04-06T02:17:13.192Z,71.32
2017-04-06T02:17:39.272Z,71.51
2017-04-06T02:18:05.372Z,71.42
2017-04-06T02:18:31.451Z,71.03
2017-04-06T02:18:57.555Z,71.32
2017-04-06T02:19:23.635Z,71.32
2017-04-06T02:19:49.716Z,71.13
2017-04-06T02:20:15.822Z,70.94
2017-04-06T02:20:41.902Z,71.13
2017-04-06T02:21:08.004Z,71.22
2017-04-06T02:21:34.084Z,71.22
2017-04-06T02:22:00.163Z,70.94
2017-04-06T02:22:26.266Z,71.32
2017-04-06T02:22:52.369Z,71.42
2017-04-06T02:23:18.423Z,71.22
2017-04-06T02:23:44.506Z,71.13
2017-04-06T02:24:10.608Z,70.75
2017-04-06T02:24:36.689Z,70.37
2017-04-06T02:25:02.792Z,70.75
2017-04-06T02:25:28.870Z,71.13
2017-04-06T02:25:54.948Z,70.94
2017-04-06T02:26:21.029Z,70.94
2017-04-06T02:26:47.112Z,71.32
2017-04-06T02:27:13.214Z,71.13
2017-04-06T02:27:39.293Z,71.51
2017-04-06T02:28:05.381Z,71.32
2017-04-06T02:28:31.461Z,71.13
2017-04-06T02:28:57.541Z,71.51
2017-04-06T02:29:23.623Z,71.03
2017-04-06T02:29:49.730Z,71.8
2017-04-06T02:30:15.809Z,71.98
2017-04-06T02:30:41.913Z,71.32
2017-04-06T02:31:08.015Z,71.32
2017-04-06T02:31:34.093Z,70.94
2017-04-06T02:32:00.198Z,71.22
2017-04-06T02:32:26.321Z,71.28
2017-04-06T02:32:52.445Z,70.9
2017-04-06T02:33:18.548Z,71.28
2017-04-06T02:33:44.627Z,71
2017-04-06T02:34:10.733Z,71.47
2017-04-06T02:34:36.811Z,71.76
2017-04-06T02:35:02.889Z,71.76
2017-04-06T02:35:28.992Z,71.76
2017-04-06T02:35:55.071Z,71.76
2017-04-06T02:36:21.149Z,71.57
2017-04-06T02:36:47.231Z,72.24
2017-04-06T02:37:13.333Z,72.05
2017-04-06T02:37:39.412Z,72.17
2017-04-06T02:38:05.495Z,71.51
2017-04-06T02:38:31.577Z,71.38
2017-04-06T02:38:57.656Z,72.05
2017-04-06T02:39:23.739Z,72.08
2017-04-06T02:39:49.838Z,71.98
2017-04-06T02:40:15.898Z,72.08
2017-04-06T02:40:41.982Z,71.95
2017-04-06T02:41:08.083Z,71.95
2017-04-06T02:41:34.163Z,72.08
2017-04-06T02:42:00.265Z,72.05
2017-04-06T02:42:26.344Z,72.17
2017-04-06T02:42:52.426Z,72.24
2017-04-06T02:43:18.508Z,71.95
2017-04-06T02:43:44.588Z,71.47
2017-04-06T02:44:10.670Z,71.95
2017-04-06T02:44:36.750Z,71.95
2017-04-06T02:45:02.829Z,72.24
2017-04-06T02:45:28.908Z,72.62
2017-04-06T02:45:54.990Z,72.75
2017-04-06T02:46:21.067Z,72.52
2017-04-06T02:46:47.149Z,72.52
2017-04-06T02:47:13.230Z,72.56
2017-04-06T02:47:39.310Z,72.08
2017-04-06T02:48:05.391Z,72.46
2017-04-06T02:48:31.471Z,72.37
2017-04-06T02:48:57.550Z,72.17
2017-04-06T02:49:23.631Z,72.24
2017-04-06T02:49:49.708Z,72.37
2017-04-06T02:50:15.792Z,71.98
2017-04-06T02:50:41.873Z,71.89
2017-04-06T02:51:07.950Z,72.46
2017-04-06T02:51:34.033Z,71.98
2017-04-06T02:52:00.115Z,71.98
2017-04-06T02:52:26.215Z,71.98
2017-04-06T02:52:52.295Z,72.17
2017-04-06T02:53:18.397Z,72.08
2017-04-06T02:53:44.477Z,71.89
2017-04-06T02:54:10.555Z,71.42
2017-04-06T02:54:36.660Z,71.8
2017-04-06T02:55:02.763Z,71.89
2017-04-06T02:55:28.842Z,72.08
2017-04-06T02:55:54.919Z,72.08
2017-04-06T02:56:21.000Z,71.98
2017-04-06T02:56:47.081Z,71.8
2017-04-06T02:57:13.160Z,71.98
2017-04-06T02:57:39.243Z,71.98
2017-04-06T02:58:05.321Z,71.61
2017-04-06T02:58:31.401Z,71.98
2017-04-06T02:58:57.481Z,72.08
2017-04-06T02:59:23.584Z,72.17
2017-04-06T02:59:49.663Z,72.08
2017-04-06T03:00:15.765Z,72.37
2017-04-06T03:00:41.844Z,71.89
2017-04-06T03:01:07.921Z,71.98
2017-04-06T03:01:34.003Z,72.46
2017-04-06T03:02:00.084Z,71.8
2017-04-06T03:02:26.207Z,71.8
2017-04-06T03:02:52.287Z,71.42
2017-04-06T03:03:18.370Z,71.8
2017-04-06T03:03:44.447Z,71.8
2017-04-06T03:04:10.529Z,71.89
2017-04-06T03:04:36.609Z,71.86
2017-04-06T03:05:02.688Z,71.98
2017-04-06T03:05:28.766Z,71.86
2017-04-06T03:05:54.847Z,71.76
2017-04-06T03:06:20.950Z,72.14
2017-04-06T03:06:47.032Z,71.76
2017-04-06T03:07:13.110Z,72.33
2017-04-06T03:07:39.192Z,71.57
2017-04-06T03:08:05.297Z,72.33
2017-04-06T03:08:31.380Z,71.95
2017-04-06T03:08:57.457Z,71.76
2017-04-06T03:09:23.560Z,71.86
2017-04-06T03:09:49.639Z,72.05
2017-04-06T03:10:15.718Z,71.57
2017-04-06T03:10:41.800Z,72.14
2017-04-06T03:11:07.876Z,71.86
2017-04-06T03:11:33.979Z,72.05
2017-04-06T03:12:00.060Z,71.95
2017-04-06T03:12:26.136Z,72.24
2017-04-06T03:12:52.216Z,72.08
2017-04-06T03:13:18.297Z,72.08
2017-04-06T03:13:44.384Z,72.27
2017-04-06T03:14:10.459Z,72.27
2017-04-06T03:14:36.542Z,71.8
2017-04-06T03:15:02.623Z,71.8
2017-04-06T03:15:28.724Z,72.37
2017-04-06T03:15:54.803Z,72.37
2017-04-06T03:16:20.885Z,71.8
2017-04-06T03:16:46.966Z,72.17
2017-04-06T03:17:13.045Z,71.32
2017-04-06T03:17:39.126Z,71.32
2017-04-06T03:18:05.206Z,70.94
2017-04-06T03:18:31.289Z,71.13
2017-04-06T03:18:57.370Z,71.22
2017-04-06T03:19:23.450Z,71.03
2017-04-06T03:19:49.553Z,71.51
2017-04-06T03:20:15.635Z,71.03
2017-04-06T03:20:41.738Z,71.32
2017-04-06T03:21:07.820Z,71.03
2017-04-06T03:21:33.922Z,71.32
2017-04-06T03:22:00.000Z,71.22
2017-04-06T03:22:26.078Z,71.22
2017-04-06T03:22:52.157Z,71.03
2017-04-06T03:23:18.237Z,71.22
2017-04-06T03:23:44.342Z,71.03
2017-04-06T03:24:10.421Z,71.03
2017-04-06T03:24:36.502Z,71.22
2017-04-06T03:25:02.604Z,71.03
2017-04-06T03:25:28.684Z,70.84
2017-04-06T03:25:54.786Z,71.03
2017-04-06T03:26:20.888Z,71.28
2017-04-06T03:26:46.970Z,71.19
2017-04-06T03:27:13.075Z,71.09
2017-04-06T03:27:39.157Z,70.9
2017-04-06T03:28:05.238Z,71.32
2017-04-06T03:28:31.318Z,71.13
2017-04-06T03:28:57.395Z,71.19
2017-04-06T03:29:23.475Z,71.38
2017-04-06T03:29:49.554Z,71.03
2017-04-06T03:30:15.634Z,71.19
2017-04-06T03:30:41.715Z,71.38
2017-04-06T03:31:07.791Z,71
2017-04-06T03:31:33.896Z,71.38
2017-04-06T03:31:59.977Z,70.9
2017-04-06T03:32:26.081Z,71.38
2017-04-06T03:32:52.182Z,70.94
2017-04-06T03:33:18.262Z,70.94
2017-04-06T03:33:44.342Z,71.42
2017-04-06T03:34:10.426Z,71
2017-04-06T03:34:36.526Z,71
2017-04-06T03:35:02.608Z,71.47
2017-04-06T03:35:28.684Z,71
2017-04-06T03:35:54.766Z,71.47
2017-04-06T03:36:20.868Z,71.76
2017-04-06T03:36:46.994Z,72.14
2017-04-06T03:37:13.072Z,72.14
2017-04-06T03:37:39.150Z,72.14
2017-04-06T03:38:05.257Z,72.05
2017-04-06T03:38:31.311Z,72.05
2017-04-06T03:38:57.389Z,72.14
2017-04-06T03:39:23.472Z,72.24
2017-04-06T03:39:49.551Z,71.76
2017-04-06T03:40:15.631Z,72.24
2017-04-06T03:40:41.709Z,72.42
2017-04-06T03:41:07.792Z,71.95
2017-04-06T03:41:33.893Z,72.17
2017-04-06T03:41:59.971Z,72.42
2017-04-06T03:42:26.051Z,71.95
2017-04-06T03:42:52.154Z,71.76
2017-04-06T03:43:18.234Z,72.33
2017-04-06T03:43:44.313Z,72.14
2017-04-06T03:44:10.393Z,71.95
2017-04-06T03:44:36.472Z,72.42
2017-04-06T03:45:02.551Z,72.17
2017-04-06T03:45:28.630Z,71.86
2017-04-06T03:45:54.711Z,71.38
2017-04-06T03:46:20.814Z,70.94
2017-04-06T03:46:46.892Z,71.19
2017-04-06T03:47:12.971Z,71.09
2017-04-06T03:47:39.050Z,71.76
2017-04-06T03:48:05.133Z,72.52
2017-04-06T03:48:31.210Z,72.24
2017-04-06T03:48:57.293Z,72.05
2017-04-06T03:49:23.375Z,72.05
2017-04-06T03:49:49.456Z,72.05
2017-04-06T03:50:15.536Z,72.17
2017-04-06T03:50:41.616Z,71.47
2017-04-06T03:51:07.696Z,72.08
2017-04-06T03:51:33.773Z,71.32
2017-04-06T03:51:59.856Z,71.09
2017-04-06T03:52:25.932Z,71.09
2017-04-06T03:52:52.015Z,71.28
2017-04-06T03:53:18.094Z,71.19
2017-04-06T03:53:44.176Z,71.95
2017-04-06T03:54:10.254Z,71.57
2017-04-06T03:54:36.334Z,71.67
2017-04-06T03:55:02.439Z,71.76
2017-04-06T03:55:28.542Z,72.05
2017-04-06T03:55:54.642Z,71.86
2017-04-06T03:56:20.722Z,72.05
2017-04-06T03:56:46.806Z,72.24
2017-04-06T03:57:12.886Z,72.05
2017-04-06T03:57:38.965Z,71.95
2017-04-06T03:58:05.068Z,71.95
2017-04-06T03:58:31.152Z,72.33
2017-04-06T03:58:57.229Z,71.8
2017-04-06T03:59:23.331Z,72.17
2017-04-06T03:59:49.412Z,71.67
2017-04-06T04:00:15.488Z,71.95
2017-04-06T04:00:41.592Z,71.61
2017-04-06T04:01:07.674Z,71.76
2017-04-06T04:01:33.751Z,71.67
2017-04-06T04:01:59.850Z,71.86
2017-04-06T04:02:25.930Z,71.86
2017-04-06T04:02:52.009Z,71.86
2017-04-06T04:03:18.087Z,71.76
2017-04-06T04:03:44.168Z,71.86
2017-04-06T04:04:10.251Z,71.19
2017-04-06T04:04:36.330Z,71.38
2017-04-06T04:05:02.410Z,71.7
2017-04-06T04:05:28.488Z,71.67
2017-04-06T04:05:54.567Z,71.13
2017-04-06T04:06:20.647Z,71.28
2017-04-06T04:06:46.730Z,71.57
2017-04-06T04:07:12.808Z,71.95
2017-04-06T04:07:38.891Z,71.76
2017-04-06T04:08:04.974Z,72.46
2017-04-06T04:08:31.052Z,72.05
2017-04-06T04:08:57.132Z,72.05
2017-04-06T04:09:23.212Z,71.76
2017-04-06T04:09:49.290Z,71.95
2017-04-06T04:10:15.369Z,72.42
2017-04-06T04:10:41.450Z,72.05
2017-04-06T04:11:07.534Z,72.05
2017-04-06T04:11:33.614Z,72.14
2017-04-06T04:11:59.697Z,72.05
2017-04-06T04:12:25.774Z,72.14
2017-04-06T04:12:51.854Z,72.05
2017-04-06T04:13:17.936Z,72.62
2017-04-06T04:13:44.062Z,72.52
2017-04-06T04:14:10.141Z,72.14
2017-04-06T04:14:36.218Z,71.57
2017-04-06T04:15:02.324Z,71.57
2017-04-06T04:15:28.449Z,72.33
2017-04-06T04:15:54.503Z,72.14
2017-04-06T04:16:20.609Z,72.24
2017-04-06T04:16:46.686Z,71.95
2017-04-06T04:17:12.768Z,71.76
2017-04-06T04:17:38.849Z,71.95
2017-04-06T04:18:04.950Z,72.05
2017-04-06T04:18:31.183Z,72.14
2017-04-06T04:18:57.264Z,72.52
2017-04-06T04:19:23.343Z,72.33
2017-04-06T04:19:49.423Z,71.95
2017-04-06T04:20:15.525Z,72.42
2017-04-06T04:20:41.602Z,72.14
2017-04-06T04:21:07.705Z,72.33
2017-04-06T04:21:33.788Z,72.24
2017-04-06T04:21:59.870Z,72.42
2017-04-06T04:22:25.973Z,72.52
2017-04-06T04:22:52.053Z,73
2017-04-06T04:23:18.158Z,73.19
2017-04-06T04:23:44.237Z,72.81
2017-04-06T04:24:10.341Z,73.28
2017-04-06T04:24:36.420Z,73.95
2017-04-06T04:25:02.498Z,73.76
2017-04-06T04:25:28.579Z,74.43
2017-04-06T04:25:54.658Z,74.33
2017-04-06T04:26:20.738Z,74.43
2017-04-06T04:26:46.816Z,74.9
2017-04-06T04:27:12.895Z,74.99
2017-04-06T04:27:38.974Z,74.8
2017-04-06T04:28:05.079Z,74.9
2017-04-06T04:28:31.158Z,75.19
2017-04-06T04:28:57.262Z,75.09
2017-04-06T04:29:23.362Z,74.8
2017-04-06T04:29:49.446Z,74.99
2017-04-06T04:30:15.525Z,75.09
2017-04-06T04:30:41.606Z,74.99
2017-04-06T04:31:07.686Z,75.19
2017-04-06T04:31:33.767Z,75.85
2017-04-06T04:31:59.848Z,75.95
2017-04-06T04:32:25.928Z,75.95
2017-04-06T04:32:52.010Z,75.57
2017-04-06T04:33:18.111Z,75.95
2017-04-06T04:33:44.190Z,75.67
2017-04-06T04:34:10.275Z,74.62
2017-04-06T04:34:36.383Z,75.09
2017-04-06T04:35:02.461Z,75.19
2017-04-06T04:35:28.564Z,75.57
2017-04-06T04:35:54.665Z,75.85
2017-04-06T04:36:20.771Z,76.14
2017-04-06T04:36:46.850Z,76.04
2017-04-06T04:37:12.933Z,76.04
2017-04-06T04:37:39.007Z,76.61
2017-04-06T04:38:05.087Z,76.42
2017-04-06T04:38:31.167Z,76.14
2017-04-06T04:38:57.269Z,76.14
2017-04-06T04:39:23.349Z,76.33
2017-04-06T04:39:49.427Z,76.04
2017-04-06T04:40:15.508Z,75.95
2017-04-06T04:40:41.588Z,75.85
2017-04-06T04:41:07.666Z,76.18
2017-04-06T04:41:33.744Z,75.95
2017-04-06T04:41:59.824Z,76.37
2017-04-06T04:42:25.926Z,75.99
2017-04-06T04:42:52.005Z,76.18
2017-04-06T04:43:18.086Z,76.14
2017-04-06T04:43:44.188Z,75.76
2017-04-06T04:44:10.267Z,75.85
2017-04-06T04:44:36.348Z,75.76
2017-04-06T04:45:02.429Z,76.23
2017-04-06T04:45:28.510Z,76.04
2017-04-06T04:45:54.591Z,76.23
2017-04-06T04:46:20.675Z,76.33
2017-04-06T04:46:46.777Z,76.23
2017-04-06T04:47:12.856Z,76.52
2017-04-06T04:47:38.957Z,76.23
2017-04-06T04:48:05.037Z,76.04
2017-04-06T04:48:31.115Z,76.33
2017-04-06T04:48:57.195Z,76.23
2017-04-06T04:49:23.279Z,76.33
2017-04-06T04:49:49.381Z,76.33
2017-04-06T04:50:15.483Z,76.42
2017-04-06T04:50:41.567Z,76.33
2017-04-06T04:51:07.649Z,76.23
2017-04-06T04:51:33.755Z,77
2017-04-06T04:51:59.836Z,76.61
2017-04-06T04:52:25.916Z,76.9
2017-04-06T04:52:51.995Z,76.81
2017-04-06T04:53:18.075Z,76.71
2017-04-06T04:53:44.179Z,76.33
2017-04-06T04:54:10.280Z,76.04
2017-04-06T04:54:36.363Z,76.23
2017-04-06T04:55:02.489Z,76.33
2017-04-06T04:55:28.590Z,76.14
2017-04-06T04:55:54.671Z,76.14
2017-04-06T04:56:20.751Z,76.23
2017-04-06T04:56:46.830Z,76.27
2017-04-06T04:57:12.910Z,76.61
2017-04-06T04:57:38.994Z,75.99
2017-04-06T04:58:05.121Z,76.56
2017-04-06T04:58:31.201Z,76.46
2017-04-06T04:58:57.279Z,76.27
2017-04-06T04:59:23.359Z,76.08
2017-04-06T04:59:49.438Z,76.08
2017-04-06T05:00:15.517Z,75.89
2017-04-06T05:00:41.643Z,76.27
2017-04-06T05:01:07.748Z,76.14
2017-04-06T05:01:33.942Z,76.52
2017-04-06T05:02:00.041Z,76.14
2017-04-06T05:02:26.123Z,76.27
2017-04-06T05:02:52.202Z,76.37
2017-04-06T05:03:18.283Z,76.52
2017-04-06T05:03:44.365Z,76.42
2017-04-06T05:04:10.445Z,76.65
2017-04-06T05:04:36.527Z,76.37
2017-04-06T05:05:02.605Z,76.37
2017-04-06T05:05:28.685Z,76.52
2017-04-06T05:05:54.763Z,76.42
2017-04-06T05:06:20.889Z,76.61
2017-04-06T05:06:46.970Z,76.61
2017-04-06T05:07:13.071Z,77
2017-04-06T05:07:39.172Z,77
2017-04-06T05:08:05.275Z,76.61
2017-04-06T05:08:31.355Z,76.14
2017-04-06T05:08:57.434Z,76.23
2017-04-06T05:09:23.513Z,75.85
2017-04-06T05:09:49.592Z,76.23
2017-04-06T05:10:15.670Z,76.23
2017-04-06T05:10:41.754Z,76.14
2017-04-06T05:11:07.836Z,76.52
2017-04-06T05:11:33.914Z,76.23
2017-04-06T05:11:59.993Z,75.76
2017-04-06T05:12:26.073Z,76.42
2017-04-06T05:12:52.153Z,76.04
2017-04-06T05:13:18.233Z,75.67
2017-04-06T05:13:44.314Z,75.67
2017-04-06T05:14:10.391Z,75.85
2017-04-06T05:14:36.474Z,75.85
2017-04-06T05:15:02.556Z,76.23
2017-04-06T05:15:28.635Z,75.67
2017-04-06T05:15:54.715Z,75.76
2017-04-06T05:16:20.795Z,75.85
2017-04-06T05:16:46.876Z,75.76
2017-04-06T05:17:12.954Z,76.33
2017-04-06T05:17:39.058Z,76.23
2017-04-06T05:18:05.138Z,75.95
2017-04-06T05:18:31.270Z,75.47
2017-04-06T05:18:57.349Z,75.76
2017-04-06T05:19:23.428Z,75.6
2017-04-06T05:19:49.509Z,75.95
2017-04-06T05:20:15.585Z,75.76
2017-04-06T05:20:41.667Z,75.6
2017-04-06T05:21:07.770Z,75.85
2017-04-06T05:21:33.849Z,75.89
2017-04-06T05:21:59.953Z,74.71
2017-04-06T05:22:26.033Z,75.28
2017-04-06T05:22:52.115Z,75.89
2017-04-06T05:23:18.194Z,75.13
2017-04-06T05:23:44.275Z,75.04
2017-04-06T05:24:10.354Z,75.89
2017-04-06T05:24:36.436Z,75.6
2017-04-06T05:25:02.515Z,75.99
2017-04-06T05:25:28.596Z,75.67
2017-04-06T05:25:54.680Z,75.23
2017-04-06T05:26:20.758Z,74.94
2017-04-06T05:26:46.836Z,74.84
2017-04-06T05:27:12.924Z,75.09
2017-04-06T05:27:39.000Z,74.99
2017-04-06T05:28:05.083Z,75.23
2017-04-06T05:28:31.163Z,75.67
2017-04-06T05:28:57.245Z,76.08
2017-04-06T05:29:23.324Z,75.19
2017-04-06T05:29:49.428Z,75.89
2017-04-06T05:30:15.509Z,75.42
2017-04-06T05:30:41.590Z,75.99
2017-04-06T05:31:07.691Z,75.79
2017-04-06T05:31:33.795Z,75.7
2017-04-06T05:31:59.896Z,75.04
2017-04-06T05:32:25.978Z,75.13
2017-04-06T05:32:52.058Z,75.6
2017-04-06T05:33:18.162Z,75.51
2017-04-06T05:33:44.240Z,75.89
2017-04-06T05:34:10.319Z,75.51
2017-04-06T05:34:36.397Z,75.51
2017-04-06T05:35:02.477Z,74.65
2017-04-06T05:35:28.559Z,75.13
2017-04-06T05:35:54.660Z,75.23
2017-04-06T05:36:20.785Z,75.13
2017-04-06T05:36:46.889Z,75.04